createdAt,value
2019-02-21T00:00:48.161Z,1009.52
2019-02-21T00:01:48.159Z,1009.46
2019-02-21T00:02:48.146Z,1009.47
2019-02-21T00:03:48.152Z,1009.51
2019-02-21T00:04:48.129Z,1009.53
2019-02-21T00:05:48.108Z,1009.51
2019-02-21T00:06:48.099Z,1009.53
2019-02-21T00:07:48.089Z,1009.53
2019-02-21T00:08:48.103Z,1009.51
2019-02-21T00:09:48.075Z,1009.49
2019-02-21T00:10:48.065Z,1009.55
2019-02-21T00:11:48.052Z,1009.55
2019-02-21T00:12:48.040Z,1009.57
2019-02-21T00:13:48.023Z,1009.60
2019-02-21T00:14:48.037Z,1009.58
2019-02-21T00:15:48.007Z,1009.60
2019-02-21T00:16:47.997Z,1009.63
2019-02-21T00:17:47.980Z,1009.60
2019-02-21T00:18:47.979Z,1009.65
2019-02-21T00:19:47.964Z,1009.66
2019-02-21T00:20:47.982Z,1009.63
2019-02-21T00:21:47.944Z,1009.61
2019-02-21T00:22:47.931Z,1009.63
2019-02-21T00:23:47.920Z,1009.60
2019-02-21T00:24:47.913Z,1009.61
2019-02-21T00:25:47.922Z,1009.56
2019-02-21T00:26:47.887Z,1009.57
2019-02-21T00:27:47.875Z,1009.57
2019-02-21T00:28:47.864Z,1009.60
2019-02-21T00:29:47.860Z,1009.56
2019-02-21T00:30:47.850Z,1009.59
2019-02-21T00:31:47.851Z,1009.58
2019-02-21T00:32:47.819Z,1009.63
2019-02-21T00:33:47.816Z,1009.64
2019-02-21T00:34:47.807Z,1009.64
2019-02-21T00:35:47.858Z,1009.61
2019-02-21T00:36:47.800Z,1009.65
2019-02-21T00:37:47.766Z,1009.64
2019-02-21T00:38:47.759Z,1009.63
2019-02-21T00:39:47.747Z,1009.65
2019-02-21T00:40:47.735Z,1009.62
2019-02-21T00:41:47.754Z,1009.61
2019-02-21T00:42:47.717Z,1009.63
2019-02-21T00:43:47.710Z,1009.59
2019-02-21T00:44:47.698Z,1009.60
2019-02-21T00:45:47.712Z,1009.64
2019-02-21T00:46:47.672Z,1009.62
2019-02-21T00:47:47.681Z,1009.64
2019-02-21T00:48:47.657Z,1009.64
2019-02-21T00:49:47.640Z,1009.67
2019-02-21T00:50:47.630Z,1009.63
2019-02-21T00:51:47.636Z,1009.69
2019-02-21T00:52:47.606Z,1009.61
2019-02-21T00:53:47.609Z,1009.59
2019-02-21T00:54:47.593Z,1009.58
2019-02-21T00:55:47.588Z,1009.60
2019-02-21T00:56:47.665Z,1009.60
2019-02-21T00:57:47.608Z,1009.58
2019-02-21T00:58:47.542Z,1009.61
2019-02-21T00:59:47.534Z,1009.65
2019-02-21T01:00:47.521Z,1009.59
2019-02-21T01:01:47.517Z,1009.60
2019-02-21T01:02:47.533Z,1009.57
2019-02-21T01:03:47.508Z,1009.56
2019-02-21T01:04:47.478Z,1009.54
2019-02-21T01:05:47.475Z,1009.56
2019-02-21T01:06:47.465Z,1009.59
2019-02-21T01:07:47.452Z,1009.57
2019-02-21T01:08:47.462Z,1009.62
2019-02-21T01:09:47.475Z,1009.60
2019-02-21T01:10:47.416Z,1009.53
2019-02-21T01:11:47.503Z,1009.56
2019-02-21T01:12:47.393Z,1009.56
2019-02-21T01:13:47.445Z,1009.53
2019-02-21T01:14:47.377Z,1009.54
2019-02-21T01:15:47.459Z,1009.58
2019-02-21T01:16:47.357Z,1009.61
2019-02-21T01:17:47.481Z,1009.61
2019-02-21T01:18:47.330Z,1009.61
2019-02-21T01:19:47.488Z,1009.60
2019-02-21T01:20:47.312Z,1009.65
2019-02-21T01:21:47.314Z,1009.62
2019-02-21T01:22:47.286Z,1009.67
2019-02-21T01:23:47.304Z,1009.65
2019-02-21T01:24:47.291Z,1009.73
2019-02-21T01:25:47.280Z,1009.73
2019-02-21T01:26:47.246Z,1009.72
2019-02-21T01:27:47.234Z,1009.78
2019-02-21T01:28:47.227Z,1009.78
2019-02-21T01:29:47.221Z,1009.72
2019-02-21T01:30:56.682Z,1009.77
2019-02-21T01:31:48.189Z,1009.74
2019-02-21T01:32:47.225Z,1009.79
2019-02-21T01:33:47.187Z,1009.70
2019-02-21T01:34:47.161Z,1009.76
2019-02-21T01:35:47.173Z,1009.78
2019-02-21T01:36:47.137Z,1009.77
2019-02-21T01:37:47.131Z,1009.80
2019-02-21T01:38:47.118Z,1009.78
2019-02-21T01:39:47.111Z,1009.75
2019-02-21T01:40:47.099Z,1009.77
2019-02-21T01:41:47.107Z,1009.71
2019-02-21T01:42:47.078Z,1009.71
2019-02-21T01:43:47.063Z,1009.69
2019-02-21T01:44:47.058Z,1009.70
2019-02-21T01:45:47.045Z,1009.63
2019-02-21T01:46:47.048Z,1009.64
2019-02-21T01:47:47.059Z,1009.61
2019-02-21T01:48:47.014Z,1009.62
2019-02-21T01:49:47.059Z,1009.64
2019-02-21T01:50:46.987Z,1009.63
2019-02-21T01:51:46.985Z,1009.60
2019-02-21T01:52:47.034Z,1009.62
2019-02-21T01:53:46.954Z,1009.59
2019-02-21T01:54:46.961Z,1009.64
2019-02-21T01:55:46.960Z,1009.58
2019-02-21T01:56:46.919Z,1009.58
2019-02-21T01:57:46.915Z,1009.60
2019-02-21T01:58:46.972Z,1009.64
2019-02-21T01:59:46.890Z,1009.63
2019-02-21T02:00:47.083Z,1009.64
2019-02-21T02:01:46.868Z,1009.59
2019-02-21T02:02:46.884Z,1009.57
2019-02-21T02:03:46.882Z,1009.60
2019-02-21T02:04:46.852Z,1009.61
2019-02-21T02:05:46.829Z,1009.61
2019-02-21T02:06:46.816Z,1009.64
2019-02-21T02:07:46.803Z,1009.70
2019-02-21T02:08:46.789Z,1009.68
2019-02-21T02:09:46.809Z,1009.64
2019-02-21T02:10:46.773Z,1009.66
2019-02-21T02:11:46.795Z,1009.66
2019-02-21T02:12:46.752Z,1009.68
2019-02-21T02:13:46.734Z,1009.68
2019-02-21T02:14:46.726Z,1009.67
2019-02-21T02:15:46.740Z,1009.68
2019-02-21T02:16:46.702Z,1009.67
2019-02-21T02:17:46.702Z,1009.72
2019-02-21T02:18:46.685Z,1009.69
2019-02-21T02:19:46.675Z,1009.68
2019-02-21T02:20:46.666Z,1009.70
2019-02-21T02:21:46.678Z,1009.67
2019-02-21T02:22:46.640Z,1009.69
2019-02-21T02:23:46.641Z,1009.67
2019-02-21T02:24:46.633Z,1009.74
2019-02-21T02:25:46.611Z,1009.77
2019-02-21T02:26:46.614Z,1009.76
2019-02-21T02:27:46.592Z,1009.77
2019-02-21T02:28:46.574Z,1009.79
2019-02-21T02:29:46.569Z,1009.82
2019-02-21T02:30:46.557Z,1009.83
2019-02-21T02:31:46.587Z,1009.86
2019-02-21T02:32:46.600Z,1009.89
2019-02-21T02:33:46.564Z,1009.90
2019-02-21T02:34:46.512Z,1009.86
2019-02-21T02:35:46.500Z,1009.86
2019-02-21T02:36:46.494Z,1009.87
2019-02-21T02:37:46.484Z,1009.82
2019-02-21T02:38:46.493Z,1009.79
2019-02-21T02:39:46.456Z,1009.81
2019-02-21T02:40:46.476Z,1009.88
2019-02-21T02:41:46.442Z,1009.89
2019-02-21T02:42:46.428Z,1009.87
2019-02-21T02:43:46.543Z,1009.88
2019-02-21T02:44:46.409Z,1009.84
2019-02-21T02:45:46.411Z,1009.83
2019-02-21T02:46:46.385Z,1009.81
2019-02-21T02:47:46.471Z,1009.85
2019-02-21T02:48:46.386Z,1009.86
2019-02-21T02:49:46.465Z,1009.87
2019-02-21T02:50:46.349Z,1009.84
2019-02-21T02:51:46.333Z,1009.84
2019-02-21T02:52:46.329Z,1009.92
2019-02-21T02:53:46.316Z,1009.90
2019-02-21T02:54:46.297Z,1009.84
2019-02-21T02:55:46.321Z,1009.87
2019-02-21T02:56:46.282Z,1009.86
2019-02-21T02:57:46.264Z,1009.87
2019-02-21T02:58:46.258Z,1009.91
2019-02-21T02:59:46.250Z,1009.93
2019-02-21T03:00:46.232Z,1009.97
2019-02-21T03:01:46.246Z,1009.98
2019-02-21T03:02:46.217Z,1010.00
2019-02-21T03:03:46.226Z,1009.96
2019-02-21T03:04:46.236Z,1009.99
2019-02-21T03:05:46.183Z,1009.98
2019-02-21T03:06:46.188Z,1009.98
2019-02-21T03:07:46.162Z,1009.93
2019-02-21T03:08:46.168Z,1009.96
2019-02-21T03:09:46.145Z,1009.96
2019-02-21T03:10:46.198Z,1009.92
2019-02-21T03:11:46.171Z,1009.96
2019-02-21T03:12:46.107Z,1009.99
2019-02-21T03:13:46.099Z,1010.02
2019-02-21T03:14:46.108Z,1009.98
2019-02-21T03:15:46.079Z,1009.92
2019-02-21T03:16:46.083Z,1009.92
2019-02-21T03:17:46.058Z,1009.87
2019-02-21T03:18:46.068Z,1009.93
2019-02-21T03:19:46.103Z,1009.97
2019-02-21T03:20:46.020Z,1009.98
2019-02-21T03:21:46.012Z,1009.98
2019-02-21T03:22:46.077Z,1009.98
2019-02-21T03:23:45.993Z,1010.00
2019-02-21T03:24:45.996Z,1009.95
2019-02-21T03:25:45.997Z,1009.95
2019-02-21T03:26:45.966Z,1009.99
2019-02-21T03:27:45.968Z,1010.01
2019-02-21T03:28:45.936Z,1010.02
2019-02-21T03:29:45.948Z,1010.01
2019-02-21T03:30:45.913Z,1010.00
2019-02-21T03:31:54.181Z,1010.04
2019-02-21T03:32:46.904Z,1010.01
2019-02-21T03:33:45.982Z,1009.97
2019-02-21T03:34:45.893Z,1009.96
2019-02-21T03:35:45.889Z,1009.91
2019-02-21T03:36:45.885Z,1009.96
2019-02-21T03:37:45.932Z,1009.95
2019-02-21T03:38:45.828Z,1009.90
2019-02-21T03:39:45.834Z,1009.93
2019-02-21T03:40:45.808Z,1009.94
2019-02-21T03:41:45.797Z,1009.95
2019-02-21T03:42:45.793Z,1009.93
2019-02-21T03:43:45.771Z,1009.93
2019-02-21T03:44:45.782Z,1009.94
2019-02-21T03:45:45.754Z,1009.96
2019-02-21T03:46:45.746Z,1010.01
2019-02-21T03:47:45.748Z,1009.93
2019-02-21T03:48:45.742Z,1009.91
2019-02-21T03:49:45.755Z,1009.96
2019-02-21T03:50:45.698Z,1009.91
2019-02-21T03:51:45.687Z,1009.95
2019-02-21T03:52:45.679Z,1009.94
2019-02-21T03:53:45.669Z,1009.93
2019-02-21T03:54:45.699Z,1009.93
2019-02-21T03:55:45.663Z,1009.93
2019-02-21T03:56:45.665Z,1009.91
2019-02-21T03:57:45.625Z,1009.96
2019-02-21T03:58:45.610Z,1009.91
2019-02-21T03:59:45.610Z,1009.94
2019-02-21T04:00:45.626Z,1009.91
2019-02-21T04:01:45.580Z,1009.89
2019-02-21T04:02:45.569Z,1009.93
2019-02-21T04:03:45.558Z,1009.88
2019-02-21T04:04:45.586Z,1009.91
2019-02-21T04:05:45.586Z,1009.85
2019-02-21T04:06:45.549Z,1009.87
2019-02-21T04:07:45.522Z,1009.87
2019-02-21T04:08:45.515Z,1009.89
2019-02-21T04:09:45.494Z,1009.89
2019-02-21T04:10:45.499Z,1009.87
2019-02-21T04:11:45.472Z,1009.91
2019-02-21T04:12:45.463Z,1009.94
2019-02-21T04:13:45.474Z,1009.88
2019-02-21T04:14:45.446Z,1009.91
2019-02-21T04:15:45.462Z,1009.89
2019-02-21T04:16:45.434Z,1009.89
2019-02-21T04:17:45.447Z,1009.83
2019-02-21T04:18:45.403Z,1009.86
2019-02-21T04:19:45.393Z,1009.87
2019-02-21T04:20:45.403Z,1009.88
2019-02-21T04:21:45.366Z,1009.88
2019-02-21T04:22:45.352Z,1009.88
2019-02-21T04:23:45.364Z,1009.88
2019-02-21T04:24:45.334Z,1009.88
2019-02-21T04:25:45.355Z,1009.88
2019-02-21T04:26:45.353Z,1009.85
2019-02-21T04:27:45.330Z,1009.77
2019-02-21T04:28:45.919Z,1009.82
2019-02-21T04:29:45.290Z,1009.78
2019-02-21T04:30:45.267Z,1009.76
2019-02-21T04:31:45.366Z,1009.80
2019-02-21T04:32:45.276Z,1009.77
2019-02-21T04:33:45.330Z,1009.78
2019-02-21T04:34:45.225Z,1009.81
2019-02-21T04:35:45.231Z,1009.81
2019-02-21T04:36:45.203Z,1009.83
2019-02-21T04:37:45.197Z,1009.79
2019-02-21T04:38:45.246Z,1009.78
2019-02-21T04:39:45.178Z,1009.80
2019-02-21T04:40:45.189Z,1009.83
2019-02-21T04:41:45.155Z,1009.85
2019-02-21T04:42:45.169Z,1009.80
2019-02-21T04:43:45.127Z,1009.81
2019-02-21T04:44:45.119Z,1009.77
2019-02-21T04:45:45.120Z,1009.84
2019-02-21T04:46:45.120Z,1009.77
2019-02-21T04:47:45.092Z,1009.82
2019-02-21T04:48:45.077Z,1009.82
2019-02-21T04:49:45.068Z,1009.85
2019-02-21T04:50:45.060Z,1009.84
2019-02-21T04:51:45.078Z,1009.80
2019-02-21T04:52:45.040Z,1009.77
2019-02-21T04:53:45.024Z,1009.76
2019-02-21T04:54:45.011Z,1009.75
2019-02-21T04:55:45.000Z,1009.71
2019-02-21T04:56:44.990Z,1009.73
2019-02-21T04:57:45.000Z,1009.73
2019-02-21T04:58:44.975Z,1009.72
2019-02-21T04:59:44.965Z,1009.76
2019-02-21T05:00:44.950Z,1009.73
2019-02-21T05:01:44.964Z,1009.67
2019-02-21T05:02:44.941Z,1009.68
2019-02-21T05:03:44.955Z,1009.63
2019-02-21T05:04:44.907Z,1009.70
2019-02-21T05:05:44.899Z,1009.68
2019-02-21T05:06:44.899Z,1009.68
2019-02-21T05:07:44.924Z,1009.74
2019-02-21T05:08:44.863Z,1009.79
2019-02-21T05:09:57.006Z,1009.73
2019-02-21T05:10:45.853Z,1009.77
2019-02-21T05:11:44.859Z,1009.77
2019-02-21T05:12:44.823Z,1009.78
2019-02-21T05:13:44.809Z,1009.75
2019-02-21T05:14:44.810Z,1009.70
2019-02-21T05:15:44.785Z,1009.72
2019-02-21T05:16:44.848Z,1009.72
2019-02-21T05:17:44.791Z,1009.66
2019-02-21T05:18:44.834Z,1009.60
2019-02-21T05:19:44.745Z,1009.67
2019-02-21T05:20:44.829Z,1009.66
2019-02-21T05:21:44.726Z,1009.62
2019-02-21T05:22:44.740Z,1009.70
2019-02-21T05:23:44.708Z,1009.74
2019-02-21T05:24:44.695Z,1009.71
2019-02-21T05:25:44.685Z,1009.67
2019-02-21T05:26:44.672Z,1009.67
2019-02-21T05:27:44.657Z,1009.67
2019-02-21T05:28:44.673Z,1009.69
2019-02-21T05:29:44.642Z,1009.67
2019-02-21T05:30:44.639Z,1009.69
2019-02-21T05:31:44.623Z,1009.68
2019-02-21T05:32:44.628Z,1009.69
2019-02-21T05:33:44.605Z,1009.69
2019-02-21T05:34:44.584Z,1009.72
2019-02-21T05:35:44.579Z,1009.66
2019-02-21T05:36:44.568Z,1009.67
2019-02-21T05:37:44.599Z,1009.67
2019-02-21T05:38:44.542Z,1009.62
2019-02-21T05:39:44.565Z,1009.66
2019-02-21T05:40:44.527Z,1009.67
2019-02-21T05:41:44.545Z,1009.60
2019-02-21T05:42:44.511Z,1009.64
2019-02-21T05:43:47.200Z,1009.61
2019-02-21T05:44:44.481Z,1009.59
2019-02-21T05:45:46.824Z,1009.62
2019-02-21T05:46:44.455Z,1009.60
2019-02-21T05:47:44.513Z,1009.66
2019-02-21T05:48:44.480Z,1009.66
2019-02-21T05:49:44.432Z,1009.66
2019-02-21T05:50:44.420Z,1009.65
2019-02-21T05:51:44.402Z,1009.64
2019-02-21T05:52:44.414Z,1009.62
2019-02-21T05:53:44.405Z,1009.68
2019-02-21T05:54:44.379Z,1009.73
2019-02-21T05:55:44.369Z,1009.69
2019-02-21T05:56:44.373Z,1009.72
2019-02-21T05:57:44.345Z,1009.69
2019-02-21T05:58:44.329Z,1009.74
2019-02-21T05:59:44.318Z,1009.68
2019-02-21T06:00:44.309Z,1009.70
2019-02-21T06:01:44.317Z,1009.73
2019-02-21T06:02:53.191Z,1009.71
2019-02-21T06:03:45.280Z,1009.73
2019-02-21T06:04:44.292Z,1009.71
2019-02-21T06:05:44.256Z,1009.74
2019-02-21T06:06:44.292Z,1009.73
2019-02-21T06:07:44.242Z,1009.75
2019-02-21T06:08:44.310Z,1009.77
2019-02-21T06:09:44.215Z,1009.76
2019-02-21T06:10:44.267Z,1009.75
2019-02-21T06:11:44.211Z,1009.76
2019-02-21T06:12:44.246Z,1009.76
2019-02-21T06:13:44.792Z,1009.74
2019-02-21T06:14:44.187Z,1009.72
2019-02-21T06:15:44.156Z,1009.78
2019-02-21T06:16:44.344Z,1009.78
2019-02-21T06:17:44.130Z,1009.85
2019-02-21T06:18:44.206Z,1009.86
2019-02-21T06:19:44.105Z,1009.83
2019-02-21T06:20:44.109Z,1009.85
2019-02-21T06:21:44.091Z,1009.77
2019-02-21T06:22:44.124Z,1009.77
2019-02-21T06:23:44.106Z,1009.81
2019-02-21T06:24:44.488Z,1009.83
2019-02-21T06:25:51.445Z,1009.86
2019-02-21T06:26:45.043Z,1009.82
2019-02-21T06:27:44.066Z,1009.86
2019-02-21T06:28:44.020Z,1009.88
2019-02-21T06:29:44.064Z,1009.87
2019-02-21T06:30:44.015Z,1009.79
2019-02-21T06:31:44.005Z,1009.88
2019-02-21T06:32:43.968Z,1009.91
2019-02-21T06:33:43.960Z,1009.92
2019-02-21T06:34:43.976Z,1009.92
2019-02-21T06:35:44.565Z,1009.95
2019-02-21T06:36:43.957Z,1009.94
2019-02-21T06:37:43.949Z,1009.99
2019-02-21T06:38:43.963Z,1010.00
2019-02-21T06:39:43.983Z,1010.02
2019-02-21T06:40:43.972Z,1009.97
2019-02-21T06:41:43.901Z,1010.03
2019-02-21T06:42:43.970Z,1009.96
2019-02-21T06:43:43.935Z,1010.00
2019-02-21T06:44:43.862Z,1010.01
2019-02-21T06:45:43.863Z,1010.05
2019-02-21T06:46:43.888Z,1010.07
2019-02-21T06:47:43.875Z,1010.04
2019-02-21T06:48:43.802Z,1010.07
2019-02-21T06:49:43.893Z,1010.08
2019-02-21T06:50:43.839Z,1010.13
2019-02-21T06:51:44.160Z,1010.12
2019-02-21T06:52:43.848Z,1010.08
2019-02-21T06:53:43.747Z,1010.12
2019-02-21T06:54:43.864Z,1010.12
2019-02-21T06:55:43.866Z,1010.14
2019-02-21T06:56:43.870Z,1010.11
2019-02-21T06:57:44.753Z,1010.10
2019-02-21T06:58:43.705Z,1010.07
2019-02-21T06:59:45.421Z,1010.09
2019-02-21T07:00:46.172Z,1010.05
2019-02-21T07:01:43.726Z,1010.10
2019-02-21T07:02:43.666Z,1010.13
2019-02-21T07:03:43.722Z,1010.14
2019-02-21T07:04:43.652Z,1010.14
2019-02-21T07:05:43.621Z,1010.16
2019-02-21T07:06:43.613Z,1010.18
2019-02-21T07:07:43.621Z,1010.19
2019-02-21T07:08:43.705Z,1010.22
2019-02-21T07:09:43.802Z,1010.22
2019-02-21T07:10:43.560Z,1010.26
2019-02-21T07:11:45.944Z,1010.24
2019-02-21T07:12:43.547Z,1010.23
2019-02-21T07:13:43.561Z,1010.24
2019-02-21T07:14:43.536Z,1010.29
2019-02-21T07:15:43.552Z,1010.32
2019-02-21T07:16:43.956Z,1010.33
2019-02-21T07:17:49.239Z,1010.32
2019-02-21T07:18:44.522Z,1010.25
2019-02-21T07:19:43.554Z,1010.27
2019-02-21T07:20:43.527Z,1010.25
2019-02-21T07:21:43.811Z,1010.29
2019-02-21T07:22:43.485Z,1010.28
2019-02-21T07:23:43.975Z,1010.27
2019-02-21T07:24:43.420Z,1010.31
2019-02-21T07:25:43.418Z,1010.28
2019-02-21T07:26:43.507Z,1010.26
2019-02-21T07:27:43.418Z,1010.30
2019-02-21T07:28:43.412Z,1010.32
2019-02-21T07:29:43.361Z,1010.30
2019-02-21T07:30:43.351Z,1010.32
2019-02-21T07:31:43.379Z,1010.37
2019-02-21T07:32:43.372Z,1010.32
2019-02-21T07:33:43.670Z,1010.35
2019-02-21T07:34:43.516Z,1010.35
2019-02-21T07:35:43.325Z,1010.29
2019-02-21T07:36:43.868Z,1010.28
2019-02-21T07:37:43.293Z,1010.32
2019-02-21T07:38:43.312Z,1010.29
2019-02-21T07:39:43.324Z,1010.32
2019-02-21T07:40:43.388Z,1010.34
2019-02-21T07:41:43.444Z,1010.37
2019-02-21T07:42:43.374Z,1010.38
2019-02-21T07:43:43.326Z,1010.36
2019-02-21T07:44:45.322Z,1010.40
2019-02-21T07:45:43.341Z,1010.43
2019-02-21T07:46:43.199Z,1010.40
2019-02-21T07:47:43.205Z,1010.45
2019-02-21T07:48:43.300Z,1010.43
2019-02-21T07:49:43.156Z,1010.40
2019-02-21T07:50:43.138Z,1010.42
2019-02-21T07:51:43.145Z,1010.42
2019-02-21T07:52:43.140Z,1010.41
2019-02-21T07:53:43.244Z,1010.42
2019-02-21T07:54:43.096Z,1010.46
2019-02-21T07:55:43.098Z,1010.46
2019-02-21T07:56:43.094Z,1010.48
2019-02-21T07:57:43.127Z,1010.51
2019-02-21T07:58:43.051Z,1010.54
2019-02-21T07:59:43.720Z,1010.52
2019-02-21T08:00:43.043Z,1010.59
2019-02-21T08:01:43.043Z,1010.48
2019-02-21T08:02:43.065Z,1010.50
2019-02-21T08:03:45.923Z,1010.53
2019-02-21T08:04:42.987Z,1010.59
2019-02-21T08:05:43.348Z,1010.59
2019-02-21T08:06:43.049Z,1010.62
2019-02-21T08:07:43.017Z,1010.60
2019-02-21T08:08:44.924Z,1010.67
2019-02-21T08:09:42.993Z,1010.67
2019-02-21T08:10:42.919Z,1010.69
2019-02-21T08:11:42.961Z,1010.72
2019-02-21T08:12:42.937Z,1010.71
2019-02-21T08:13:42.934Z,1010.71
2019-02-21T08:14:43.459Z,1010.63
2019-02-21T08:15:43.284Z,1010.63
2019-02-21T08:16:42.894Z,1010.68
2019-02-21T08:17:42.919Z,1010.69
2019-02-21T08:18:43.253Z,1010.71
2019-02-21T08:19:43.014Z,1010.70
2019-02-21T08:20:42.874Z,1010.76
2019-02-21T08:21:43.601Z,1010.72
2019-02-21T08:22:42.914Z,1010.74
2019-02-21T08:23:50.551Z,1010.76
2019-02-21T08:24:43.939Z,1010.73
2019-02-21T08:25:43.089Z,1010.79
2019-02-21T08:26:42.852Z,1010.80
2019-02-21T08:27:42.776Z,1010.77
2019-02-21T08:28:42.832Z,1010.73
2019-02-21T08:29:42.767Z,1010.75
2019-02-21T08:30:42.775Z,1010.78
2019-02-21T08:31:42.963Z,1010.80
2019-02-21T08:32:42.919Z,1010.76
2019-02-21T08:33:45.622Z,1010.80
2019-02-21T08:34:43.803Z,1010.79
2019-02-21T08:35:42.676Z,1010.77
2019-02-21T08:36:42.640Z,1010.80
2019-02-21T08:37:42.629Z,1010.81
2019-02-21T08:38:42.627Z,1010.80
2019-02-21T08:39:42.634Z,1010.83
2019-02-21T08:40:42.597Z,1010.75
2019-02-21T08:41:42.583Z,1010.82
2019-02-21T08:42:42.573Z,1010.80
2019-02-21T08:43:42.561Z,1010.89
2019-02-21T08:44:42.574Z,1010.90
2019-02-21T08:45:42.572Z,1010.88
2019-02-21T08:46:42.574Z,1010.85
2019-02-21T08:47:42.519Z,1010.89
2019-02-21T08:48:42.509Z,1010.86
2019-02-21T08:49:42.517Z,1010.86
2019-02-21T08:50:42.493Z,1010.87
2019-02-21T08:51:42.480Z,1010.86
2019-02-21T08:52:42.534Z,1010.92
2019-02-21T08:53:42.539Z,1010.90
2019-02-21T08:54:42.461Z,1010.92
2019-02-21T08:55:42.431Z,1010.91
2019-02-21T08:56:42.425Z,1010.90
2019-02-21T08:57:42.413Z,1010.92
2019-02-21T08:58:42.405Z,1010.93
2019-02-21T08:59:42.481Z,1010.94
2019-02-21T09:00:42.381Z,1010.94
2019-02-21T09:01:42.387Z,1010.92
2019-02-21T09:02:42.355Z,1010.95
2019-02-21T09:03:42.352Z,1010.92
2019-02-21T09:04:42.358Z,1010.91
2019-02-21T09:05:42.325Z,1010.88
2019-02-21T09:06:42.314Z,1010.85
2019-02-21T09:07:42.347Z,1010.88
2019-02-21T09:08:42.298Z,1010.92
2019-02-21T09:09:42.288Z,1010.92
2019-02-21T09:10:42.291Z,1010.85
2019-02-21T09:11:42.488Z,1010.87
2019-02-21T09:12:42.315Z,1010.95
2019-02-21T09:13:42.341Z,1010.90
2019-02-21T09:14:42.361Z,1010.92
2019-02-21T09:15:42.797Z,1010.92
2019-02-21T09:16:42.626Z,1010.97
2019-02-21T09:17:42.277Z,1010.98
2019-02-21T09:18:42.215Z,1010.98
2019-02-21T09:19:42.452Z,1010.94
2019-02-21T09:20:42.181Z,1010.92
2019-02-21T09:21:42.233Z,1010.95
2019-02-21T09:22:42.167Z,1010.94
2019-02-21T09:23:42.151Z,1011.01
2019-02-21T09:24:42.618Z,1011.04
2019-02-21T09:25:42.108Z,1011.00
2019-02-21T09:26:42.117Z,1011.03
2019-02-21T09:27:42.121Z,1011.02
2019-02-21T09:28:42.075Z,1011.02
2019-02-21T09:29:42.073Z,1011.12
2019-02-21T09:30:42.081Z,1011.10
2019-02-21T09:31:42.103Z,1011.10
2019-02-21T09:32:42.169Z,1011.15
2019-02-21T09:33:43.754Z,1011.16
2019-02-21T09:34:42.017Z,1011.19
2019-02-21T09:35:42.036Z,1011.15
2019-02-21T09:36:42.003Z,1011.14
2019-02-21T09:37:41.981Z,1011.13
2019-02-21T09:38:41.998Z,1011.13
2019-02-21T09:39:42.011Z,1011.13
2019-02-21T09:40:42.766Z,1011.12
2019-02-21T09:41:41.935Z,1011.14
2019-02-21T09:42:42.024Z,1011.21
2019-02-21T09:43:41.930Z,1011.28
2019-02-21T09:44:41.903Z,1011.25
2019-02-21T09:45:42.338Z,1011.24
2019-02-21T09:46:41.879Z,1011.34
2019-02-21T09:47:41.893Z,1011.33
2019-02-21T09:48:41.909Z,1011.34
2019-02-21T09:49:41.856Z,1011.37
2019-02-21T09:50:41.874Z,1011.39
2019-02-21T09:51:41.825Z,1011.38
2019-02-21T09:52:41.814Z,1011.42
2019-02-21T09:53:41.812Z,1011.37
2019-02-21T09:54:41.799Z,1011.39
2019-02-21T09:55:41.804Z,1011.33
2019-02-21T09:56:52.092Z,1011.42
2019-02-21T09:57:42.758Z,1011.42
2019-02-21T09:58:41.747Z,1011.46
2019-02-21T09:59:41.736Z,1011.37
2019-02-21T10:00:41.752Z,1011.35
2019-02-21T10:01:41.729Z,1011.32
2019-02-21T10:02:42.182Z,1011.30
2019-02-21T10:03:44.124Z,1011.34
2019-02-21T10:04:41.695Z,1011.23
2019-02-21T10:05:41.702Z,1011.27
2019-02-21T10:06:41.678Z,1011.28
2019-02-21T10:07:41.658Z,1011.30
2019-02-21T10:08:41.653Z,1011.25
2019-02-21T10:09:41.642Z,1011.29
2019-02-21T10:10:41.685Z,1011.24
2019-02-21T10:11:41.660Z,1011.25
2019-02-21T10:12:41.658Z,1011.27
2019-02-21T10:13:41.596Z,1011.33
2019-02-21T10:14:41.582Z,1011.39
2019-02-21T10:15:41.571Z,1011.43
2019-02-21T10:16:41.586Z,1011.41
2019-02-21T10:17:41.584Z,1011.44
2019-02-21T10:18:41.535Z,1011.41
2019-02-21T10:19:41.520Z,1011.41
2019-02-21T10:20:41.512Z,1011.38
2019-02-21T10:21:41.502Z,1011.43
2019-02-21T10:22:41.515Z,1011.41
2019-02-21T10:23:42.244Z,1011.39
2019-02-21T10:24:41.472Z,1011.40
2019-02-21T10:25:41.459Z,1011.36
2019-02-21T10:26:41.513Z,1011.36
2019-02-21T10:27:41.493Z,1011.35
2019-02-21T10:28:41.436Z,1011.30
2019-02-21T10:29:41.440Z,1011.32
2019-02-21T10:30:41.419Z,1011.32
2019-02-21T10:31:41.452Z,1011.38
2019-02-21T10:32:41.383Z,1011.44
2019-02-21T10:33:46.862Z,1011.43
2019-02-21T10:34:43.359Z,1011.40
2019-02-21T10:35:41.363Z,1011.36
2019-02-21T10:36:41.371Z,1011.35
2019-02-21T10:37:41.329Z,1011.35
2019-02-21T10:38:41.315Z,1011.30
2019-02-21T10:39:41.329Z,1011.30
2019-02-21T10:40:41.300Z,1011.30
2019-02-21T10:41:41.304Z,1011.28
2019-02-21T10:42:41.273Z,1011.27
2019-02-21T10:43:41.272Z,1011.23
2019-02-21T10:44:41.251Z,1011.23
2019-02-21T10:45:47.760Z,1011.16
2019-02-21T10:46:42.233Z,1011.18
2019-02-21T10:47:41.222Z,1011.18
2019-02-21T10:48:41.211Z,1011.15
2019-02-21T10:49:41.197Z,1011.12
2019-02-21T10:50:41.206Z,1011.15
2019-02-21T10:51:41.224Z,1011.20
2019-02-21T10:52:41.720Z,1011.17
2019-02-21T10:53:41.171Z,1011.18
2019-02-21T10:54:41.148Z,1011.26
2019-02-21T10:55:41.129Z,1011.26
2019-02-21T10:56:41.122Z,1011.17
2019-02-21T10:57:41.151Z,1011.23
2019-02-21T10:58:41.108Z,1011.22
2019-02-21T10:59:46.547Z,1011.15
2019-02-21T11:00:42.246Z,1011.12
2019-02-21T11:01:41.066Z,1011.09
2019-02-21T11:02:41.081Z,1011.09
2019-02-21T11:03:41.049Z,1011.08
2019-02-21T11:04:42.234Z,1011.11
2019-02-21T11:05:41.025Z,1011.12
2019-02-21T11:06:41.019Z,1011.09
2019-02-21T11:07:41.024Z,1011.19
2019-02-21T11:08:41.012Z,1011.14
2019-02-21T11:09:40.979Z,1011.14
2019-02-21T11:10:40.984Z,1011.18
2019-02-21T11:11:40.963Z,1011.20
2019-02-21T11:12:41.009Z,1011.14
2019-02-21T11:13:40.938Z,1011.10
2019-02-21T11:14:47.437Z,1011.14
2019-02-21T11:15:42.254Z,1011.14
2019-02-21T11:16:40.962Z,1011.13
2019-02-21T11:17:40.922Z,1011.08
2019-02-21T11:18:40.887Z,1011.03
2019-02-21T11:19:40.877Z,1011.06
2019-02-21T11:20:40.864Z,1011.01
2019-02-21T11:21:40.855Z,1011.12
2019-02-21T11:22:40.867Z,1011.03
2019-02-21T11:23:40.893Z,1011.01
2019-02-21T11:24:40.820Z,1010.98
2019-02-21T11:25:40.825Z,1010.97
2019-02-21T11:26:40.835Z,1010.94
2019-02-21T11:27:40.806Z,1010.97
2019-02-21T11:28:40.860Z,1010.95
2019-02-21T11:29:40.767Z,1010.92
2019-02-21T11:30:40.762Z,1010.97
2019-02-21T11:31:40.794Z,1010.97
2019-02-21T11:32:40.735Z,1010.96
2019-02-21T11:33:40.824Z,1010.96
2019-02-21T11:34:40.709Z,1010.97
2019-02-21T11:35:40.712Z,1011.00
2019-02-21T11:36:40.687Z,1010.97
2019-02-21T11:37:45.602Z,1010.91
2019-02-21T11:38:41.710Z,1010.97
2019-02-21T11:39:40.671Z,1010.92
2019-02-21T11:40:40.695Z,1010.90
2019-02-21T11:41:40.692Z,1010.98
2019-02-21T11:42:40.682Z,1010.95
2019-02-21T11:43:40.803Z,1010.89
2019-02-21T11:44:40.764Z,1010.97
2019-02-21T11:45:40.715Z,1010.97
2019-02-21T11:46:40.590Z,1010.98
2019-02-21T11:47:40.572Z,1010.97
2019-02-21T11:48:40.580Z,1010.97
2019-02-21T11:49:40.594Z,1010.98
2019-02-21T11:50:40.562Z,1011.07
2019-02-21T11:51:40.534Z,1011.12
2019-02-21T11:52:40.526Z,1011.10
2019-02-21T11:53:40.542Z,1011.13
2019-02-21T11:54:40.564Z,1011.13
2019-02-21T11:55:40.485Z,1011.16
2019-02-21T11:56:40.475Z,1011.13
2019-02-21T11:57:40.468Z,1011.10
2019-02-21T11:58:40.468Z,1011.15
2019-02-21T11:59:40.456Z,1011.25
2019-02-21T12:00:40.450Z,1011.19
2019-02-21T12:01:40.455Z,1011.20
2019-02-21T12:02:40.418Z,1011.08
2019-02-21T12:03:40.437Z,1011.16
2019-02-21T12:04:40.403Z,1011.20
2019-02-21T12:05:40.376Z,1011.11